createdAt,value
2022-11-07T00:01:14.733Z,6.49
2022-11-07T00:03:47.055Z,6.45
2022-11-07T00:06:19.191Z,6.43
2022-11-07T00:08:54.143Z,6.49
2022-11-07T00:11:24.781Z,6.50
2022-11-07T00:13:57.080Z,6.47
2022-11-07T00:16:29.580Z,6.45
2022-11-07T00:19:02.038Z,6.45
2022-11-07T00:21:34.353Z,6.43
2022-11-07T00:24:07.957Z,6.38
2022-11-07T00:26:40.786Z,6.37
2022-11-07T00:29:17.229Z,6.36
2022-11-07T00:31:50.395Z,6.35
2022-11-07T00:34:22.680Z,6.34
2022-11-07T00:36:54.963Z,6.32
2022-11-07T00:39:27.213Z,6.37
2022-11-07T00:41:59.532Z,6.38
2022-11-07T00:44:31.755Z,6.38
2022-11-07T00:47:03.924Z,6.38
2022-11-07T00:49:36.245Z,6.41
2022-11-07T00:52:08.643Z,6.39
2022-11-07T00:54:41.369Z,6.31
2022-11-07T00:57:13.589Z,6.26
2022-11-07T00:59:45.834Z,6.24
2022-11-07T01:02:18.321Z,6.20
2022-11-07T01:05:08.269Z,6.16
2022-11-07T01:07:41.210Z,6.14
2022-11-07T01:10:13.554Z,6.19
2022-11-07T01:12:45.655Z,6.18
2022-11-07T01:15:18.152Z,6.18
2022-11-07T01:17:50.402Z,6.13
2022-11-07T01:20:22.943Z,6.08
2022-11-07T01:22:55.163Z,6.04
2022-11-07T01:25:27.382Z,6.00
2022-11-07T01:27:59.802Z,5.97
2022-11-07T01:30:32.078Z,5.93
2022-11-07T01:33:04.661Z,5.87
2022-11-07T01:35:38.179Z,5.85
2022-11-07T01:38:10.476Z,5.88
2022-11-07T01:40:58.976Z,5.87
2022-11-07T01:43:48.143Z,5.90
2022-11-07T01:46:20.854Z,5.91
2022-11-07T01:48:58.061Z,5.90
2022-11-07T01:51:33.201Z,5.89
2022-11-07T01:54:06.498Z,5.89
2022-11-07T01:56:41.298Z,5.90
2022-11-07T01:59:16.461Z,5.90
2022-11-07T02:01:49.199Z,5.89
2022-11-07T02:04:24.666Z,5.89
2022-11-07T02:07:02.080Z,5.89
2022-11-07T02:09:34.773Z,5.87
2022-11-07T02:12:07.824Z,5.94
2022-11-07T02:14:40.071Z,5.96
2022-11-07T02:17:12.980Z,5.97
2022-11-07T02:19:48.579Z,5.99
2022-11-07T02:22:30.705Z,6.02
2022-11-07T02:25:05.998Z,6.07
2022-11-07T02:27:40.213Z,6.04
2022-11-07T02:30:15.917Z,6.05
2022-11-07T02:32:48.441Z,6.02
2022-11-07T02:35:40.532Z,5.98
2022-11-07T02:38:17.045Z,5.95
2022-11-07T02:40:52.649Z,5.98
2022-11-07T02:43:28.284Z,6.03
2022-11-07T02:46:04.072Z,6.09
2022-11-07T02:48:45.008Z,6.11
2022-11-07T02:51:17.756Z,6.14
2022-11-07T02:53:49.877Z,6.18
2022-11-07T02:56:22.985Z,6.20
2022-11-07T02:58:55.794Z,6.21
2022-11-07T03:01:28.093Z,6.20
2022-11-07T03:04:00.770Z,6.20
2022-11-07T03:06:32.963Z,6.21
2022-11-07T03:09:05.618Z,6.17
2022-11-07T03:11:37.864Z,6.16
2022-11-07T03:14:10.102Z,6.21
2022-11-07T03:16:42.330Z,6.21
2022-11-07T03:19:14.495Z,6.24
2022-11-07T03:21:46.715Z,6.26
2022-11-07T03:24:18.888Z,6.27
2022-11-07T03:26:51.153Z,6.30
2022-11-07T03:29:23.424Z,6.33
2022-11-07T03:31:55.696Z,6.30
2022-11-07T03:34:27.966Z,6.27
2022-11-07T03:37:00.287Z,6.25
2022-11-07T03:39:32.536Z,6.23
2022-11-07T03:42:04.936Z,6.22
2022-11-07T03:44:37.357Z,6.24
2022-11-07T03:47:09.730Z,6.24
2022-11-07T03:49:42.154Z,6.26
2022-11-07T03:52:14.500Z,6.29
2022-11-07T03:54:46.775Z,6.32
2022-11-07T03:57:18.918Z,6.36
2022-11-07T03:59:51.064Z,6.38
2022-11-07T04:02:24.509Z,6.38
2022-11-07T04:04:56.954Z,6.34
2022-11-07T04:07:29.123Z,6.32
2022-11-07T04:10:01.269Z,6.28
2022-11-07T04:12:51.230Z,6.25
2022-11-07T04:15:43.233Z,6.24
2022-11-07T04:18:15.473Z,6.28
2022-11-07T04:20:47.673Z,6.26
2022-11-07T04:23:19.921Z,6.24
2022-11-07T04:26:09.789Z,6.22
2022-11-07T04:28:42.049Z,6.20
2022-11-07T04:31:14.292Z,6.19
2022-11-07T04:33:46.408Z,6.20
2022-11-07T04:36:19.068Z,6.22
2022-11-07T04:38:51.334Z,6.27
2022-11-07T04:41:25.397Z,6.31
2022-11-07T04:43:57.796Z,6.30
2022-11-07T04:46:29.887Z,6.26
2022-11-07T04:49:02.079Z,6.22
2022-11-07T04:51:34.300Z,6.23
2022-11-07T04:54:06.760Z,6.29
2022-11-07T04:56:39.840Z,6.30
2022-11-07T04:59:12.108Z,6.33
2022-11-07T05:01:44.340Z,6.33
2022-11-07T05:04:16.556Z,6.36
2022-11-07T05:06:48.759Z,6.39
2022-11-07T05:09:21.399Z,6.45
2022-11-07T05:11:53.565Z,6.46
2022-11-07T05:14:25.809Z,6.45
2022-11-07T05:16:58.111Z,6.45
2022-11-07T05:19:31.348Z,6.38
2022-11-07T05:22:21.312Z,6.37
2022-11-07T05:24:53.556Z,6.43
2022-11-07T05:27:26.391Z,6.44
2022-11-07T05:29:58.516Z,6.43
2022-11-07T05:32:30.777Z,6.43
2022-11-07T05:35:02.961Z,6.46
2022-11-07T05:37:35.161Z,6.50
2022-11-07T05:40:10.374Z,6.48
2022-11-07T05:42:42.726Z,6.43
2022-11-07T05:45:15.149Z,6.42
2022-11-07T05:47:47.306Z,6.38
2022-11-07T05:50:19.763Z,6.31
2022-11-07T05:52:51.955Z,6.32
2022-11-07T05:55:25.234Z,6.34
2022-11-07T05:57:57.471Z,6.34
2022-11-07T06:00:29.660Z,6.35
2022-11-07T06:03:02.336Z,6.39
2022-11-07T06:05:34.657Z,6.43
2022-11-07T06:08:07.725Z,6.44
2022-11-07T06:10:40.981Z,6.45
2022-11-07T06:13:15.748Z,6.50
2022-11-07T06:15:47.355Z,6.56
2022-11-07T06:18:21.942Z,6.62
2022-11-07T06:20:54.542Z,6.68
2022-11-07T06:23:26.816Z,6.73
2022-11-07T06:25:58.956Z,6.73
2022-11-07T06:28:31.147Z,6.75
2022-11-07T06:31:04.622Z,6.72
2022-11-07T06:33:36.842Z,6.66
2022-11-07T06:36:12.187Z,6.67
2022-11-07T06:38:44.406Z,6.68
2022-11-07T06:41:17.545Z,6.70
2022-11-07T06:43:51.374Z,6.75
2022-11-07T06:46:23.495Z,6.80
2022-11-07T06:48:55.681Z,6.83
2022-11-07T06:51:28.241Z,6.85
2022-11-07T06:54:00.484Z,6.86
2022-11-07T06:56:32.623Z,6.88
2022-11-07T06:59:04.874Z,6.94
2022-11-07T07:01:37.267Z,6.96
2022-11-07T07:04:11.412Z,6.97
2022-11-07T07:06:43.783Z,6.98
2022-11-07T07:09:16.106Z,7.00
2022-11-07T07:11:48.454Z,7.03
2022-11-07T07:14:20.679Z,7.11
2022-11-07T07:16:52.868Z,7.14
2022-11-07T07:19:25.093Z,7.16
2022-11-07T07:21:57.638Z,7.19
2022-11-07T07:24:29.945Z,7.18
2022-11-07T07:27:02.154Z,7.18
2022-11-07T07:29:34.936Z,7.17
2022-11-07T07:32:07.363Z,7.19
2022-11-07T07:34:39.632Z,7.24
2022-11-07T07:37:12.291Z,7.30
2022-11-07T07:39:44.533Z,7.31
2022-11-07T07:42:17.108Z,7.29
2022-11-07T07:44:50.028Z,7.30
2022-11-07T07:47:22.239Z,7.32
2022-11-07T07:49:54.436Z,7.38
2022-11-07T07:52:26.678Z,7.39
2022-11-07T07:54:58.919Z,7.38
2022-11-07T07:57:31.347Z,7.40
2022-11-07T08:00:03.961Z,7.43
2022-11-07T08:02:44.724Z,7.47
2022-11-07T08:05:17.949Z,7.52
2022-11-07T08:07:52.183Z,7.55
2022-11-07T08:10:41.325Z,7.59
2022-11-07T08:13:14.179Z,7.63
2022-11-07T08:15:46.538Z,7.62
2022-11-07T08:18:19.950Z,7.61
2022-11-07T08:20:55.424Z,7.61
2022-11-07T08:23:27.820Z,7.62
2022-11-07T08:26:02.522Z,7.67
2022-11-07T08:28:36.663Z,7.68
2022-11-07T08:31:10.815Z,7.68
2022-11-07T08:33:43.110Z,7.71
2022-11-07T08:36:15.291Z,7.75
2022-11-07T08:38:47.461Z,7.78
2022-11-07T08:41:22.387Z,7.81
2022-11-07T08:43:54.895Z,7.83
2022-11-07T08:46:26.959Z,7.86
2022-11-07T08:48:59.152Z,7.86
2022-11-07T08:51:31.531Z,7.84
2022-11-07T08:54:03.941Z,7.84
2022-11-07T08:56:37.371Z,7.89
2022-11-07T08:59:10.924Z,7.99
2022-11-07T09:02:14.402Z,8.04
2022-11-07T09:04:35.703Z,8.07
2022-11-07T09:07:08.011Z,8.13
2022-11-07T09:09:40.207Z,8.18
2022-11-07T09:12:12.633Z,8.20
2022-11-07T09:14:44.848Z,8.23
2022-11-07T09:17:18.029Z,8.21
2022-11-07T09:19:51.897Z,8.19
2022-11-07T09:22:24.529Z,8.20
2022-11-07T09:24:56.731Z,8.25
2022-11-07T09:27:28.889Z,8.27
2022-11-07T09:30:01.110Z,8.29
2022-11-07T09:32:48.286Z,8.33
2022-11-07T09:35:20.701Z,8.35
2022-11-07T09:37:53.331Z,8.34
2022-11-07T09:40:40.736Z,8.32
2022-11-07T09:43:40.093Z,8.30
2022-11-07T09:46:24.340Z,8.31
2022-11-07T09:49:04.010Z,8.38
2022-11-07T09:51:41.042Z,8.41
2022-11-07T09:54:21.812Z,8.45
2022-11-07T09:56:55.898Z,8.53
2022-11-07T09:59:34.671Z,8.59
2022-11-07T10:02:17.409Z,8.60
2022-11-07T10:04:54.797Z,8.57
2022-11-07T10:07:38.138Z,8.57
2022-11-07T10:10:18.031Z,8.56
2022-11-07T10:13:08.990Z,8.57
2022-11-07T10:15:55.572Z,8.61
2022-11-07T10:18:37.421Z,8.61
2022-11-07T10:24:29.244Z,8.88
2022-11-07T10:27:02.459Z,9.10
2022-11-07T10:29:44.829Z,9.20
2022-11-07T10:32:23.875Z,9.23
2022-11-07T10:35:11.656Z,9.28
2022-11-07T10:37:43.824Z,9.32
2022-11-07T10:40:21.691Z,9.32
2022-11-07T10:42:54.765Z,9.34
2022-11-07T10:45:29.276Z,9.30
2022-11-07T10:48:03.789Z,9.30
2022-11-07T10:50:36.005Z,9.29
2022-11-07T10:53:19.516Z,9.25
2022-11-07T10:55:53.270Z,9.21
2022-11-07T10:58:29.458Z,9.21
2022-11-07T11:01:05.932Z,9.22
2022-11-07T11:03:45.811Z,9.25
2022-11-07T11:06:30.371Z,9.28
2022-11-07T11:09:17.351Z,9.25
2022-11-07T11:11:53.360Z,9.21
2022-11-07T11:14:25.603Z,9.23
2022-11-07T11:16:58.659Z,9.26
2022-11-07T11:19:36.186Z,9.31
2022-11-07T11:22:17.320Z,9.41
2022-11-07T11:24:59.045Z,9.51
2022-11-07T11:27:35.860Z,9.55
2022-11-07T11:30:13.941Z,9.62
2022-11-07T11:32:51.905Z,9.75
2022-11-07T11:35:41.303Z,9.87
2022-11-07T11:38:18.759Z,9.99
2022-11-07T11:41:03.296Z,10.04
2022-11-07T11:43:45.166Z,10.08
2022-11-07T11:46:27.239Z,10.13
2022-11-07T11:49:06.048Z,10.18
2022-11-07T11:51:45.706Z,10.21
2022-11-07T11:54:18.642Z,10.26
2022-11-07T11:56:57.113Z,10.29
2022-11-07T11:59:49.103Z,10.34
2022-11-07T12:02:47.852Z,10.37
2022-11-07T12:05:36.250Z,10.41
2022-11-07T12:08:22.889Z,10.45
2022-11-07T12:11:03.096Z,10.48
2022-11-07T12:13:43.814Z,10.50
2022-11-07T12:16:26.761Z,10.59
2022-11-07T12:19:07.199Z,10.85
2022-11-07T12:21:49.994Z,10.84
2022-11-07T12:24:34.521Z,11.19
2022-11-07T12:27:20.277Z,11.32
2022-11-07T12:30:09.999Z,11.19
2022-11-07T12:32:58.435Z,11.06
2022-11-07T12:35:40.212Z,10.92
2022-11-07T12:38:36.928Z,10.77
2022-11-07T12:41:20.389Z,10.68
2022-11-07T12:44:02.291Z,10.65
2022-11-07T12:46:46.765Z,10.64
2022-11-07T12:49:41.869Z,10.60
2022-11-07T12:52:27.298Z,10.59
2022-11-07T12:55:03.487Z,10.55
2022-11-07T12:57:39.522Z,10.47
2022-11-07T13:00:24.512Z,10.37
2022-11-07T13:03:26.556Z,10.27
2022-11-07T13:06:10.350Z,10.15
2022-11-07T13:08:52.016Z,10.06
2022-11-07T13:11:29.186Z,10.02
2022-11-07T13:14:19.638Z,10.01
2022-11-07T13:17:05.458Z,9.92
2022-11-07T13:19:40.533Z,9.84
2022-11-07T13:22:25.512Z,9.79
2022-11-07T13:25:10.636Z,9.73
2022-11-07T13:28:00.648Z,9.64
2022-11-07T13:30:38.114Z,9.55
2022-11-07T13:33:30.637Z,9.48
2022-11-07T13:36:15.603Z,9.45
2022-11-07T13:38:54.044Z,9.46
2022-11-07T13:41:26.825Z,9.44
2022-11-07T13:44:03.295Z,9.43
2022-11-07T13:46:40.479Z,9.43
2022-11-07T13:49:20.640Z,9.42
2022-11-07T13:51:54.595Z,9.38
2022-11-07T13:54:35.873Z,9.35
2022-11-07T13:57:12.886Z,9.31
2022-11-07T13:59:51.347Z,9.27
2022-11-07T14:02:25.597Z,9.25
2022-11-07T14:05:20.054Z,9.28
2022-11-07T14:07:58.031Z,9.29
2022-11-07T14:10:33.943Z,9.29
2022-11-07T14:13:08.930Z,9.30
2022-11-07T14:15:48.291Z,9.29
2022-11-07T14:18:21.841Z,9.26
2022-11-07T14:20:56.697Z,9.23
2022-11-07T14:23:28.175Z,9.20
2022-11-07T14:26:02.573Z,9.17
2022-11-07T14:28:39.425Z,9.16
2022-11-07T14:31:26.182Z,9.21
2022-11-07T14:34:00.428Z,9.22
2022-11-07T14:36:33.080Z,9.22
2022-11-07T14:39:12.891Z,9.22
2022-11-07T14:41:48.322Z,9.21
2022-11-07T14:44:28.402Z,9.18
2022-11-07T14:47:13.089Z,9.16
2022-11-07T14:49:48.198Z,9.14
2022-11-07T14:52:26.051Z,9.14
2022-11-07T14:55:04.269Z,9.19
2022-11-07T14:57:38.911Z,9.20
2022-11-07T15:00:17.723Z,9.22
2022-11-07T15:02:54.236Z,9.23
2022-11-07T15:05:29.566Z,9.23
2022-11-07T15:08:02.695Z,9.24
2022-11-07T15:10:39.791Z,9.25
2022-11-07T15:13:26.431Z,9.23
2022-11-07T15:16:05.513Z,9.18
2022-11-07T15:18:43.110Z,9.17
2022-11-07T15:21:29.763Z,9.21
2022-11-07T15:24:23.279Z,9.21
2022-11-07T15:27:03.181Z,9.20
2022-11-07T15:29:37.528Z,9.19
2022-11-07T15:32:16.821Z,9.18
2022-11-07T15:35:07.824Z,9.12
2022-11-07T15:37:54.428Z,9.07
2022-11-07T15:40:27.645Z,9.04
2022-11-07T15:43:00.200Z,9.00
2022-11-07T15:45:33.210Z,9.02
2022-11-07T15:48:06.155Z,8.99
2022-11-07T15:50:42.409Z,8.98
2022-11-07T15:53:21.516Z,8.95
2022-11-07T15:55:57.376Z,8.92
2022-11-07T15:58:32.483Z,8.88
2022-11-07T16:01:04.707Z,8.82
2022-11-07T16:03:37.110Z,8.77
2022-11-07T16:06:27.532Z,8.73
2022-11-07T16:09:00.768Z,8.70
2022-11-07T16:11:32.959Z,8.74
2022-11-07T16:14:33.853Z,8.75
2022-11-07T16:16:57.424Z,8.78
2022-11-07T16:19:32.272Z,8.80
2022-11-07T16:22:04.492Z,8.81
2022-11-07T16:24:36.662Z,8.83
2022-11-07T16:27:09.269Z,8.80
2022-11-07T16:29:44.365Z,8.79
2022-11-07T16:32:18.658Z,8.77
2022-11-07T16:34:51.229Z,8.76
2022-11-07T16:37:23.413Z,8.79
2022-11-07T16:39:55.614Z,8.79
2022-11-07T16:42:28.342Z,8.79
2022-11-07T16:45:00.612Z,8.77
2022-11-07T16:47:37.592Z,8.77
2022-11-07T16:50:11.459Z,8.74
2022-11-07T16:52:43.774Z,8.70
2022-11-07T16:55:19.859Z,8.66
2022-11-07T16:57:52.118Z,8.62
2022-11-07T17:00:25.808Z,8.61
2022-11-07T17:02:58.212Z,8.66
2022-11-07T17:05:30.649Z,8.66
2022-11-07T17:08:03.746Z,8.65
2022-11-07T17:10:35.817Z,8.67
2022-11-07T17:13:08.036Z,8.67
2022-11-07T17:15:40.736Z,8.68
2022-11-07T17:18:20.459Z,8.65
2022-11-07T17:20:54.492Z,8.63
2022-11-07T17:23:30.172Z,8.60
2022-11-07T17:26:02.800Z,8.57
2022-11-07T17:28:35.020Z,8.61
2022-11-07T17:31:07.396Z,8.62
2022-11-07T17:33:39.558Z,8.62
2022-11-07T17:36:23.937Z,8.63
2022-11-07T17:38:56.260Z,8.66
2022-11-07T17:41:30.071Z,8.68
2022-11-07T17:44:03.850Z,8.65
2022-11-07T17:46:37.653Z,8.62
2022-11-07T17:49:12.383Z,8.59
2022-11-07T17:51:44.989Z,8.53
2022-11-07T17:54:17.794Z,8.51
2022-11-07T17:56:50.528Z,8.55
2022-11-07T17:59:23.593Z,8.53
2022-11-07T18:01:55.931Z,8.52
2022-11-07T18:04:28.315Z,8.53
2022-11-07T18:07:00.556Z,8.57
2022-11-07T18:09:32.875Z,8.61
2022-11-07T18:12:05.508Z,8.60
2022-11-07T18:14:37.699Z,8.60
2022-11-07T18:17:09.996Z,8.58
2022-11-07T18:19:42.624Z,8.56
2022-11-07T18:22:14.740Z,8.57
2022-11-07T18:24:47.681Z,8.61
2022-11-07T18:27:20.116Z,8.61
2022-11-07T18:29:52.353Z,8.62
2022-11-07T18:32:24.617Z,8.65
2022-11-07T18:34:56.914Z,8.68
2022-11-07T18:37:29.106Z,8.70
2022-11-07T18:40:01.328Z,8.67
2022-11-07T18:42:33.673Z,8.65
2022-11-07T18:45:07.121Z,8.64
2022-11-07T18:47:39.337Z,8.64
2022-11-07T18:50:12.585Z,8.66
2022-11-07T18:52:44.754Z,8.72
2022-11-07T18:55:17.267Z,8.73
2022-11-07T18:57:49.475Z,8.75
2022-11-07T19:00:22.015Z,8.77
2022-11-07T19:02:54.961Z,8.80
2022-11-07T19:05:27.565Z,8.84
2022-11-07T19:07:59.763Z,8.84
2022-11-07T19:10:32.056Z,8.83
2022-11-07T19:13:08.106Z,8.82
2022-11-07T19:15:42.126Z,8.82
2022-11-07T19:18:14.690Z,8.84
2022-11-07T19:20:47.643Z,8.90
2022-11-07T19:23:19.904Z,8.93
2022-11-07T19:25:52.515Z,8.94
2022-11-07T19:28:25.017Z,8.96
2022-11-07T19:30:57.235Z,8.99
2022-11-07T19:33:29.456Z,9.02
2022-11-07T19:36:03.210Z,9.01
2022-11-07T19:38:36.176Z,9.01
2022-11-07T19:41:10.712Z,8.99
2022-11-07T19:43:43.351Z,8.99
2022-11-07T19:46:20.304Z,9.05
2022-11-07T19:48:53.215Z,9.06
2022-11-07T19:51:25.424Z,9.06
2022-11-07T19:53:59.244Z,9.08
2022-11-07T19:56:33.023Z,9.09
2022-11-07T19:59:05.561Z,9.08
2022-11-07T20:01:39.546Z,9.04
2022-11-07T20:04:12.060Z,9.01
2022-11-07T20:06:44.361Z,8.97
2022-11-07T20:09:16.962Z,8.96
2022-11-07T20:11:49.434Z,8.99
2022-11-07T20:14:21.681Z,8.99
2022-11-07T20:16:53.980Z,9.00
2022-11-07T20:19:26.536Z,8.98
2022-11-07T20:21:58.957Z,8.96
2022-11-07T20:24:31.431Z,8.92
2022-11-07T20:27:03.687Z,8.90
2022-11-07T20:29:35.919Z,8.86
2022-11-07T20:32:08.527Z,8.83
2022-11-07T20:34:41.027Z,8.86
2022-11-07T20:37:13.711Z,8.86
2022-11-07T20:39:47.049Z,8.84
2022-11-07T20:42:19.832Z,8.85
2022-11-07T20:44:53.269Z,8.86
2022-11-07T20:47:25.707Z,8.85
2022-11-07T20:49:57.899Z,8.81
2022-11-07T20:52:30.201Z,8.79
2022-11-07T20:55:02.417Z,8.78
2022-11-07T20:57:34.739Z,8.79
2022-11-07T21:00:10.438Z,8.84
2022-11-07T21:02:42.734Z,8.84
2022-11-07T21:05:20.275Z,8.83
2022-11-07T21:07:52.558Z,8.83
2022-11-07T21:10:24.877Z,8.84
2022-11-07T21:12:57.117Z,8.83
2022-11-07T21:15:29.262Z,8.79
2022-11-07T21:18:03.476Z,8.76
2022-11-07T21:20:35.923Z,8.73
2022-11-07T21:23:09.726Z,8.73
2022-11-07T21:25:44.298Z,8.77
2022-11-07T21:28:18.350Z,8.79
2022-11-07T21:31:01.111Z,8.79
2022-11-07T21:33:34.279Z,8.81
2022-11-07T21:36:11.591Z,8.80
2022-11-07T21:38:45.057Z,8.80
2022-11-07T21:41:18.513Z,8.77
2022-11-07T21:43:51.029Z,8.75
2022-11-07T21:46:24.650Z,8.74
2022-11-07T21:48:57.654Z,8.76
2022-11-07T21:51:32.017Z,8.82
2022-11-07T21:54:06.065Z,8.86
2022-11-07T21:56:40.585Z,8.88
2022-11-07T21:59:13.682Z,8.92
2022-11-07T22:01:48.821Z,8.95
2022-11-07T22:04:21.285Z,8.98
2022-11-07T22:06:53.844Z,8.99
2022-11-07T22:09:26.185Z,8.98
2022-11-07T22:11:58.430Z,8.97
2022-11-07T22:14:30.630Z,8.99
2022-11-07T22:17:02.994Z,9.06
2022-11-07T22:19:35.167Z,9.09
2022-11-07T22:22:07.384Z,9.11
2022-11-07T22:24:39.685Z,9.13
2022-11-07T22:27:11.875Z,9.16
2022-11-07T22:29:44.110Z,9.17
2022-11-07T22:32:16.288Z,9.14
2022-11-07T22:34:48.518Z,9.13
2022-11-07T22:37:20.869Z,9.11
2022-11-07T22:39:53.208Z,9.12
2022-11-07T22:42:25.552Z,9.17
2022-11-07T22:44:57.776Z,9.18
2022-11-07T22:47:29.938Z,9.20
2022-11-07T22:50:02.379Z,9.21
2022-11-07T22:52:34.621Z,9.23
2022-11-07T22:55:09.284Z,9.25
2022-11-07T22:57:43.459Z,9.25
2022-11-07T23:00:22.204Z,9.24
2022-11-07T23:02:54.739Z,9.23
2022-11-07T23:05:27.428Z,9.21
2022-11-07T23:08:00.192Z,9.23
2022-11-07T23:10:32.691Z,9.27
2022-11-07T23:13:05.112Z,9.28
2022-11-07T23:15:37.383Z,9.28
2022-11-07T23:18:09.651Z,9.29
2022-11-07T23:21:07.804Z,9.31
2022-11-07T23:23:40.539Z,9.29
2022-11-07T23:26:15.422Z,9.28
2022-11-07T23:28:46.652Z,9.28
2022-11-07T23:31:20.039Z,9.25
2022-11-07T23:33:52.256Z,9.21
2022-11-07T23:36:24.559Z,9.22
2022-11-07T23:38:56.875Z,9.27
2022-11-07T23:41:29.164Z,9.28
2022-11-07T23:44:01.445Z,9.29
2022-11-07T23:46:51.625Z,9.32
2022-11-07T23:49:41.900Z,9.34
2022-11-07T23:52:14.246Z,9.33
2022-11-07T23:55:04.210Z,9.30
2022-11-07T23:57:58.263Z,9.27
